sensor_id;sensor_type;location;lat;lon;timestamp;P1;durP1;ratioP1;P2;durP2;ratioP2
53151;SDS011;39234;53.158;6.322;2023-07-24T00:00:23;9.23;;;5.15;;
53151;SDS011;39234;53.158;6.322;2023-07-24T00:02:49;10.75;;;5.10;;
53151;SDS011;39234;53.158;6.322;2023-07-24T00:05:15;13.40;;;5.50;;
53151;SDS011;39234;53.158;6.322;2023-07-24T00:07:40;9.95;;;5.47;;
53151;SDS011;39234;53.158;6.322;2023-07-24T00:10:06;9.90;;;5.20;;
53151;SDS011;39234;53.158;6.322;2023-07-24T00:12:32;11.88;;;5.80;;
53151;SDS011;39234;53.158;6.322;2023-07-24T00:14:58;11.82;;;5.20;;
53151;SDS011;39234;53.158;6.322;2023-07-24T00:17:24;13.52;;;5.25;;
53151;SDS011;39234;53.158;6.322;2023-07-24T00:19:50;12.07;;;4.90;;
53151;SDS011;39234;53.158;6.322;2023-07-24T00:22:16;9.75;;;5.38;;
53151;SDS011;39234;53.158;6.322;2023-07-24T00:24:41;9.32;;;5.38;;
53151;SDS011;39234;53.158;6.322;2023-07-24T00:27:07;11.05;;;5.45;;
53151;SDS011;39234;53.158;6.322;2023-07-24T00:29:33;9.25;;;5.28;;
53151;SDS011;39234;53.158;6.322;2023-07-24T00:31:58;11.20;;;5.30;;
53151;SDS011;39234;53.158;6.322;2023-07-24T00:34:24;11.50;;;5.68;;
53151;SDS011;39234;53.158;6.322;2023-07-24T00:36:50;11.88;;;5.53;;
53151;SDS011;39234;53.158;6.322;2023-07-24T00:39:16;13.07;;;5.22;;
53151;SDS011;39234;53.158;6.322;2023-07-24T00:41:42;13.80;;;5.40;;
53151;SDS011;39234;53.158;6.322;2023-07-24T00:44:08;13.65;;;6.70;;
53151;SDS011;39234;53.158;6.322;2023-07-24T00:46:34;9.93;;;5.40;;
53151;SDS011;39234;53.158;6.322;2023-07-24T00:49:01;15.02;;;5.78;;
53151;SDS011;39234;53.158;6.322;2023-07-24T00:51:27;12.40;;;5.32;;
53151;SDS011;39234;53.158;6.322;2023-07-24T00:53:57;12.55;;;6.40;;
53151;SDS011;39234;53.158;6.322;2023-07-24T00:56:24;12.70;;;6.28;;
53151;SDS011;39234;53.158;6.322;2023-07-24T00:58:51;15.63;;;7.28;;
53151;SDS011;39234;53.158;6.322;2023-07-24T01:01:20;13.20;;;6.22;;
53151;SDS011;39234;53.158;6.322;2023-07-24T01:03:47;12.57;;;6.22;;
53151;SDS011;39234;53.158;6.322;2023-07-24T01:06:13;12.75;;;6.68;;
53151;SDS011;39234;53.158;6.322;2023-07-24T01:08:39;14.35;;;6.50;;
53151;SDS011;39234;53.158;6.322;2023-07-24T01:11:27;13.68;;;6.88;;
53151;SDS011;39234;53.158;6.322;2023-07-24T01:14:12;13.90;;;6.47;;
53151;SDS011;39234;53.158;6.322;2023-07-24T01:16:51;15.88;;;7.30;;
53151;SDS011;39234;53.158;6.322;2023-07-24T01:21:55;20.30;;;7.80;;
53151;SDS011;39234;53.158;6.322;2023-07-24T01:24:36;15.73;;;7.25;;
53151;SDS011;39234;53.158;6.322;2023-07-24T01:27:18;13.93;;;8.15;;
53151;SDS011;39234;53.158;6.322;2023-07-24T01:29:50;12.40;;;7.55;;
53151;SDS011;39234;53.158;6.322;2023-07-24T01:32:16;13.35;;;7.57;;
53151;SDS011;39234;53.158;6.322;2023-07-24T01:34:42;14.63;;;8.60;;
53151;SDS011;39234;53.158;6.322;2023-07-24T01:37:08;15.60;;;8.40;;
53151;SDS011;39234;53.158;6.322;2023-07-24T01:39:36;16.80;;;9.43;;
53151;SDS011;39234;53.158;6.322;2023-07-24T01:42:02;19.30;;;9.65;;
53151;SDS011;39234;53.158;6.322;2023-07-24T01:44:29;15.40;;;9.70;;
53151;SDS011;39234;53.158;6.322;2023-07-24T01:46:55;18.65;;;10.10;;
53151;SDS011;39234;53.158;6.322;2023-07-24T01:49:21;18.38;;;10.30;;
53151;SDS011;39234;53.158;6.322;2023-07-24T01:51:46;16.00;;;10.80;;
53151;SDS011;39234;53.158;6.322;2023-07-24T01:54:12;19.25;;;11.15;;
53151;SDS011;39234;53.158;6.322;2023-07-24T01:56:39;17.42;;;10.90;;
53151;SDS011;39234;53.158;6.322;2023-07-24T01:59:04;22.17;;;11.90;;
53151;SDS011;39234;53.158;6.322;2023-07-24T02:01:31;15.32;;;12.30;;
53151;SDS011;39234;53.158;6.322;2023-07-24T02:03:56;17.92;;;12.05;;
53151;SDS011;39234;53.158;6.322;2023-07-24T02:06:22;18.25;;;11.77;;
53151;SDS011;39234;53.158;6.322;2023-07-24T02:08:48;19.23;;;12.77;;
53151;SDS011;39234;53.158;6.322;2023-07-24T02:11:16;19.35;;;12.50;;
53151;SDS011;39234;53.158;6.322;2023-07-24T02:13:45;20.40;;;12.75;;
53151;SDS011;39234;53.158;6.322;2023-07-24T02:16:14;21.48;;;13.60;;
53151;SDS011;39234;53.158;6.322;2023-07-24T02:18:41;20.05;;;13.50;;
53151;SDS011;39234;53.158;6.322;2023-07-24T02:21:07;19.90;;;13.52;;
53151;SDS011;39234;53.158;6.322;2023-07-24T02:23:33;18.92;;;14.45;;
53151;SDS011;39234;53.158;6.322;2023-07-24T02:25:59;21.02;;;14.70;;
53151;SDS011;39234;53.158;6.322;2023-07-24T02:28:25;18.48;;;14.20;;
53151;SDS011;39234;53.158;6.322;2023-07-24T02:30:51;19.80;;;14.65;;
53151;SDS011;39234;53.158;6.322;2023-07-24T02:33:21;21.95;;;14.65;;
53151;SDS011;39234;53.158;6.322;2023-07-24T02:35:47;22.20;;;14.70;;
53151;SDS011;39234;53.158;6.322;2023-07-24T02:38:12;20.88;;;15.13;;
53151;SDS011;39234;53.158;6.322;2023-07-24T02:40:40;18.73;;;14.63;;
53151;SDS011;39234;53.158;6.322;2023-07-24T02:43:06;20.70;;;14.05;;
53151;SDS011;39234;53.158;6.322;2023-07-24T02:45:35;21.55;;;15.45;;
53151;SDS011;39234;53.158;6.322;2023-07-24T02:48:01;22.08;;;15.15;;
53151;SDS011;39234;53.158;6.322;2023-07-24T02:50:28;18.13;;;13.80;;
53151;SDS011;39234;53.158;6.322;2023-07-24T02:52:53;22.38;;;14.45;;
53151;SDS011;39234;53.158;6.322;2023-07-24T02:55:19;20.20;;;13.05;;
53151;SDS011;39234;53.158;6.322;2023-07-24T02:57:45;19.15;;;13.02;;
53151;SDS011;39234;53.158;6.322;2023-07-24T03:00:11;18.30;;;12.73;;
53151;SDS011;39234;53.158;6.322;2023-07-24T03:02:37;19.23;;;13.15;;
53151;SDS011;39234;53.158;6.322;2023-07-24T03:05:04;19.33;;;12.13;;
53151;SDS011;39234;53.158;6.322;2023-07-24T03:07:30;20.65;;;13.23;;
53151;SDS011;39234;53.158;6.322;2023-07-24T03:09:56;19.48;;;11.88;;
53151;SDS011;39234;53.158;6.322;2023-07-24T03:12:22;16.25;;;12.30;;
53151;SDS011;39234;53.158;6.322;2023-07-24T03:14:48;16.52;;;11.23;;
53151;SDS011;39234;53.158;6.322;2023-07-24T03:17:14;15.25;;;10.43;;
53151;SDS011;39234;53.158;6.322;2023-07-24T03:19:40;20.67;;;11.68;;
53151;SDS011;39234;53.158;6.322;2023-07-24T03:22:06;18.77;;;10.25;;
53151;SDS011;39234;53.158;6.322;2023-07-24T03:24:33;15.40;;;8.93;;
53151;SDS011;39234;53.158;6.322;2023-07-24T03:26:58;21.63;;;10.55;;
53151;SDS011;39234;53.158;6.322;2023-07-24T03:29:25;16.90;;;8.82;;
53151;SDS011;39234;53.158;6.322;2023-07-24T03:31:51;15.73;;;8.48;;
53151;SDS011;39234;53.158;6.322;2023-07-24T03:34:17;15.30;;;8.77;;
53151;SDS011;39234;53.158;6.322;2023-07-24T03:36:43;15.55;;;8.98;;
53151;SDS011;39234;53.158;6.322;2023-07-24T03:39:09;16.63;;;9.63;;
53151;SDS011;39234;53.158;6.322;2023-07-24T03:41:35;14.48;;;9.20;;
53151;SDS011;39234;53.158;6.322;2023-07-24T03:44:01;15.20;;;8.50;;
53151;SDS011;39234;53.158;6.322;2023-07-24T03:46:27;19.25;;;9.68;;
53151;SDS011;39234;53.158;6.322;2023-07-24T03:48:52;16.13;;;9.13;;
53151;SDS011;39234;53.158;6.322;2023-07-24T03:51:18;17.83;;;9.90;;
53151;SDS011;39234;53.158;6.322;2023-07-24T03:53:44;15.50;;;9.20;;
53151;SDS011;39234;53.158;6.322;2023-07-24T03:56:09;13.30;;;8.38;;
53151;SDS011;39234;53.158;6.322;2023-07-24T03:58:36;14.80;;;8.68;;
53151;SDS011;39234;53.158;6.322;2023-07-24T04:01:03;16.42;;;9.07;;
53151;SDS011;39234;53.158;6.322;2023-07-24T04:03:29;15.32;;;8.65;;
53151;SDS011;39234;53.158;6.322;2023-07-24T04:05:55;14.43;;;9.07;;
53151;SDS011;39234;53.158;6.322;2023-07-24T04:08:20;14.90;;;8.10;;
53151;SDS011;39234;53.158;6.322;2023-07-24T04:10:46;12.48;;;8.48;;
53151;SDS011;39234;53.158;6.322;2023-07-24T04:13:12;14.55;;;8.40;;
53151;SDS011;39234;53.158;6.322;2023-07-24T04:15:38;15.35;;;9.18;;
53151;SDS011;39234;53.158;6.322;2023-07-24T04:18:04;14.20;;;8.70;;
53151;SDS011;39234;53.158;6.322;2023-07-24T04:20:30;14.93;;;8.38;;
53151;SDS011;39234;53.158;6.322;2023-07-24T04:22:56;15.55;;;8.93;;
53151;SDS011;39234;53.158;6.322;2023-07-24T04:25:22;12.93;;;8.68;;
53151;SDS011;39234;53.158;6.322;2023-07-24T04:27:47;13.55;;;8.75;;
53151;SDS011;39234;53.158;6.322;2023-07-24T04:30:13;14.05;;;9.00;;
53151;SDS011;39234;53.158;6.322;2023-07-24T04:32:39;17.58;;;9.45;;
53151;SDS011;39234;53.158;6.322;2023-07-24T04:35:05;14.82;;;10.20;;
53151;SDS011;39234;53.158;6.322;2023-07-24T04:37:31;15.20;;;10.65;;
53151;SDS011;39234;53.158;6.322;2023-07-24T04:39:56;14.85;;;10.80;;
53151;SDS011;39234;53.158;6.322;2023-07-24T04:42:22;14.30;;;10.20;;
53151;SDS011;39234;53.158;6.322;2023-07-24T04:44:48;16.52;;;10.55;;
53151;SDS011;39234;53.158;6.322;2023-07-24T04:47:15;15.57;;;10.82;;
53151;SDS011;39234;53.158;6.322;2023-07-24T04:49:41;14.48;;;10.50;;
53151;SDS011;39234;53.158;6.322;2023-07-24T04:52:06;13.73;;;10.13;;
53151;SDS011;39234;53.158;6.322;2023-07-24T04:54:33;16.38;;;10.80;;
53151;SDS011;39234;53.158;6.322;2023-07-24T04:56:58;15.98;;;11.00;;
53151;SDS011;39234;53.158;6.322;2023-07-24T04:59:24;13.80;;;10.38;;
53151;SDS011;39234;53.158;6.322;2023-07-24T05:01:50;14.90;;;11.02;;
53151;SDS011;39234;53.158;6.322;2023-07-24T05:04:15;14.80;;;10.70;;
53151;SDS011;39234;53.158;6.322;2023-07-24T05:06:41;15.63;;;10.70;;
53151;SDS011;39234;53.158;6.322;2023-07-24T05:09:07;15.30;;;11.02;;
53151;SDS011;39234;53.158;6.322;2023-07-24T05:11:32;14.98;;;10.93;;
53151;SDS011;39234;53.158;6.322;2023-07-24T05:13:58;13.20;;;11.07;;
53151;SDS011;39234;53.158;6.322;2023-07-24T05:16:24;17.80;;;11.05;;
53151;SDS011;39234;53.158;6.322;2023-07-24T05:18:50;14.27;;;10.07;;
53151;SDS011;39234;53.158;6.322;2023-07-24T05:21:15;15.73;;;11.80;;
53151;SDS011;39234;53.158;6.322;2023-07-24T05:23:41;14.93;;;10.55;;
53151;SDS011;39234;53.158;6.322;2023-07-24T05:26:07;14.52;;;11.05;;
53151;SDS011;39234;53.158;6.322;2023-07-24T05:28:33;13.05;;;10.77;;
53151;SDS011;39234;53.158;6.322;2023-07-24T05:31:02;14.80;;;11.02;;
53151;SDS011;39234;53.158;6.322;2023-07-24T05:33:29;17.45;;;11.77;;
53151;SDS011;39234;53.158;6.322;2023-07-24T05:35:58;14.57;;;10.13;;
53151;SDS011;39234;53.158;6.322;2023-07-24T05:38:25;14.07;;;11.00;;
53151;SDS011;39234;53.158;6.322;2023-07-24T05:40:58;14.25;;;10.95;;
53151;SDS011;39234;53.158;6.322;2023-07-24T05:43:25;12.82;;;10.05;;
53151;SDS011;39234;53.158;6.322;2023-07-24T05:45:52;13.70;;;10.60;;
53151;SDS011;39234;53.158;6.322;2023-07-24T05:48:19;15.35;;;10.45;;
53151;SDS011;39234;53.158;6.322;2023-07-24T05:50:45;15.23;;;10.68;;
53151;SDS011;39234;53.158;6.322;2023-07-24T05:53:10;15.02;;;11.02;;
53151;SDS011;39234;53.158;6.322;2023-07-24T05:55:36;14.38;;;10.88;;
53151;SDS011;39234;53.158;6.322;2023-07-24T05:58:02;14.63;;;11.60;;
53151;SDS011;39234;53.158;6.322;2023-07-24T06:00:28;18.33;;;10.88;;
53151;SDS011;39234;53.158;6.322;2023-07-24T06:02:53;14.90;;;10.70;;
53151;SDS011;39234;53.158;6.322;2023-07-24T06:05:19;17.67;;;10.80;;
53151;SDS011;39234;53.158;6.322;2023-07-24T06:07:45;16.20;;;10.68;;
53151;SDS011;39234;53.158;6.322;2023-07-24T06:10:12;14.13;;;11.05;;
53151;SDS011;39234;53.158;6.322;2023-07-24T06:12:37;15.40;;;10.18;;
53151;SDS011;39234;53.158;6.322;2023-07-24T06:15:03;13.57;;;9.98;;
53151;SDS011;39234;53.158;6.322;2023-07-24T06:17:30;15.60;;;11.05;;
53151;SDS011;39234;53.158;6.322;2023-07-24T06:19:56;17.17;;;10.43;;
53151;SDS011;39234;53.158;6.322;2023-07-24T06:22:22;17.02;;;10.65;;
53151;SDS011;39234;53.158;6.322;2023-07-24T06:24:48;15.13;;;10.80;;
53151;SDS011;39234;53.158;6.322;2023-07-24T06:27:14;16.23;;;10.20;;
53151;SDS011;39234;53.158;6.322;2023-07-24T06:29:40;14.05;;;10.15;;
53151;SDS011;39234;53.158;6.322;2023-07-24T06:32:06;15.35;;;10.05;;
53151;SDS011;39234;53.158;6.322;2023-07-24T06:34:32;13.23;;;9.82;;
53151;SDS011;39234;53.158;6.322;2023-07-24T06:36:58;15.45;;;9.52;;
53151;SDS011;39234;53.158;6.322;2023-07-24T06:39:23;12.60;;;9.43;;
53151;SDS011;39234;53.158;6.322;2023-07-24T06:41:52;14.90;;;9.82;;
53151;SDS011;39234;53.158;6.322;2023-07-24T06:44:19;16.67;;;9.73;;
53151;SDS011;39234;53.158;6.322;2023-07-24T06:46:45;15.40;;;9.80;;
53151;SDS011;39234;53.158;6.322;2023-07-24T06:49:10;14.18;;;9.27;;
53151;SDS011;39234;53.158;6.322;2023-07-24T06:51:36;16.73;;;9.00;;
53151;SDS011;39234;53.158;6.322;2023-07-24T06:54:03;17.42;;;9.43;;
53151;SDS011;39234;53.158;6.322;2023-07-24T06:56:30;13.60;;;9.32;;
53151;SDS011;39234;53.158;6.322;2023-07-24T06:58:56;15.70;;;10.30;;
53151;SDS011;39234;53.158;6.322;2023-07-24T07:01:22;19.38;;;9.23;;
53151;SDS011;39234;53.158;6.322;2023-07-24T07:03:47;14.95;;;9.38;;
53151;SDS011;39234;53.158;6.322;2023-07-24T07:06:13;18.45;;;9.82;;
53151;SDS011;39234;53.158;6.322;2023-07-24T07:08:39;14.60;;;9.07;;
53151;SDS011;39234;53.158;6.322;2023-07-24T07:11:04;15.23;;;8.75;;
53151;SDS011;39234;53.158;6.322;2023-07-24T07:13:30;13.02;;;8.30;;
53151;SDS011;39234;53.158;6.322;2023-07-24T07:15:56;17.25;;;9.15;;
53151;SDS011;39234;53.158;6.322;2023-07-24T07:18:22;17.42;;;9.32;;
53151;SDS011;39234;53.158;6.322;2023-07-24T07:20:48;15.18;;;9.30;;
53151;SDS011;39234;53.158;6.322;2023-07-24T07:23:15;22.58;;;9.70;;
53151;SDS011;39234;53.158;6.322;2023-07-24T07:25:41;17.30;;;10.30;;
53151;SDS011;39234;53.158;6.322;2023-07-24T07:28:13;15.13;;;8.60;;
53151;SDS011;39234;53.158;6.322;2023-07-24T07:30:40;20.95;;;9.25;;
53151;SDS011;39234;53.158;6.322;2023-07-24T07:33:06;14.57;;;8.50;;
53151;SDS011;39234;53.158;6.322;2023-07-24T07:35:32;19.02;;;9.60;;
53151;SDS011;39234;53.158;6.322;2023-07-24T07:37:59;14.57;;;8.85;;
53151;SDS011;39234;53.158;6.322;2023-07-24T07:40:25;19.80;;;9.60;;
53151;SDS011;39234;53.158;6.322;2023-07-24T07:42:55;19.88;;;10.20;;
53151;SDS011;39234;53.158;6.322;2023-07-24T07:45:22;14.10;;;8.35;;
53151;SDS011;39234;53.158;6.322;2023-07-24T07:47:48;16.17;;;9.32;;
53151;SDS011;39234;53.158;6.322;2023-07-24T07:50:14;16.45;;;8.98;;
53151;SDS011;39234;53.158;6.322;2023-07-24T07:52:40;14.05;;;8.48;;
53151;SDS011;39234;53.158;6.322;2023-07-24T07:55:06;15.43;;;8.07;;
53151;SDS011;39234;53.158;6.322;2023-07-24T07:57:36;20.83;;;9.32;;
53151;SDS011;39234;53.158;6.322;2023-07-24T08:00:03;19.48;;;8.00;;
53151;SDS011;39234;53.158;6.322;2023-07-24T08:02:30;17.52;;;9.18;;
53151;SDS011;39234;53.158;6.322;2023-07-24T08:04:57;14.88;;;7.85;;
53151;SDS011;39234;53.158;6.322;2023-07-24T08:07:23;16.83;;;8.32;;
53151;SDS011;39234;53.158;6.322;2023-07-24T08:09:49;18.02;;;7.88;;
53151;SDS011;39234;53.158;6.322;2023-07-24T08:12:15;14.52;;;8.48;;
53151;SDS011;39234;53.158;6.322;2023-07-24T08:14:41;14.60;;;7.32;;
53151;SDS011;39234;53.158;6.322;2023-07-24T08:17:07;15.80;;;7.72;;
53151;SDS011;39234;53.158;6.322;2023-07-24T08:19:33;19.27;;;8.15;;
53151;SDS011;39234;53.158;6.322;2023-07-24T08:21:59;17.08;;;8.05;;
53151;SDS011;39234;53.158;6.322;2023-07-24T08:24:24;15.25;;;7.80;;
53151;SDS011;39234;53.158;6.322;2023-07-24T08:26:50;16.23;;;7.47;;
53151;SDS011;39234;53.158;6.322;2023-07-24T08:29:16;20.30;;;8.77;;
53151;SDS011;39234;53.158;6.322;2023-07-24T08:31:42;15.80;;;7.45;;
53151;SDS011;39234;53.158;6.322;2023-07-24T08:34:07;15.65;;;7.00;;
53151;SDS011;39234;53.158;6.322;2023-07-24T08:36:33;16.02;;;7.85;;
53151;SDS011;39234;53.158;6.322;2023-07-24T08:38:59;19.95;;;7.55;;
53151;SDS011;39234;53.158;6.322;2023-07-24T08:41:24;17.55;;;8.45;;
53151;SDS011;39234;53.158;6.322;2023-07-24T08:43:50;17.17;;;7.70;;
53151;SDS011;39234;53.158;6.322;2023-07-24T08:46:18;20.10;;;7.85;;
53151;SDS011;39234;53.158;6.322;2023-07-24T08:48:45;21.52;;;8.50;;
53151;SDS011;39234;53.158;6.322;2023-07-24T08:51:12;14.70;;;6.90;;
53151;SDS011;39234;53.158;6.322;2023-07-24T08:53:41;16.42;;;7.18;;
53151;SDS011;39234;53.158;6.322;2023-07-24T08:56:09;16.27;;;7.88;;
53151;SDS011;39234;53.158;6.322;2023-07-24T08:58:37;14.00;;;7.03;;
53151;SDS011;39234;53.158;6.322;2023-07-24T09:01:04;18.30;;;6.88;;
53151;SDS011;39234;53.158;6.322;2023-07-24T09:03:31;15.48;;;6.25;;
53151;SDS011;39234;53.158;6.322;2023-07-24T09:05:57;14.73;;;7.15;;
53151;SDS011;39234;53.158;6.322;2023-07-24T09:08:30;14.75;;;6.57;;
53151;SDS011;39234;53.158;6.322;2023-07-24T09:11:00;12.55;;;6.28;;
53151;SDS011;39234;53.158;6.322;2023-07-24T09:13:28;14.02;;;6.50;;
53151;SDS011;39234;53.158;6.322;2023-07-24T09:15:54;16.15;;;6.32;;
53151;SDS011;39234;53.158;6.322;2023-07-24T09:18:20;13.18;;;6.00;;
53151;SDS011;39234;53.158;6.322;2023-07-24T09:20:46;12.23;;;6.07;;
53151;SDS011;39234;53.158;6.322;2023-07-24T09:23:13;12.80;;;6.40;;
53151;SDS011;39234;53.158;6.322;2023-07-24T09:25:39;13.43;;;6.25;;
53151;SDS011;39234;53.158;6.322;2023-07-24T09:28:11;14.90;;;7.15;;
53151;SDS011;39234;53.158;6.322;2023-07-24T09:30:56;10.20;;;5.80;;
53151;SDS011;39234;53.158;6.322;2023-07-24T09:33:36;15.45;;;7.03;;
53151;SDS011;39234;53.158;6.322;2023-07-24T09:36:04;13.15;;;5.88;;
53151;SDS011;39234;53.158;6.322;2023-07-24T09:38:33;15.95;;;6.15;;
53151;SDS011;39234;53.158;6.322;2023-07-24T09:41:00;12.55;;;5.90;;
53151;SDS011;39234;53.158;6.322;2023-07-24T09:43:27;11.57;;;6.20;;
53151;SDS011;39234;53.158;6.322;2023-07-24T09:45:54;11.63;;;5.32;;
53151;SDS011;39234;53.158;6.322;2023-07-24T09:48:21;9.40;;;4.90;;
53151;SDS011;39234;53.158;6.322;2023-07-24T09:50:57;11.27;;;5.57;;
53151;SDS011;39234;53.158;6.322;2023-07-24T09:58:26;12.30;;;6.78;;
53151;SDS011;39234;53.158;6.322;2023-07-24T10:00:53;11.55;;;6.65;;
53151;SDS011;39234;53.158;6.322;2023-07-24T10:03:21;11.63;;;6.55;;
53151;SDS011;39234;53.158;6.322;2023-07-24T10:05:47;11.50;;;6.63;;
53151;SDS011;39234;53.158;6.322;2023-07-24T10:08:17;14.43;;;6.25;;
53151;SDS011;39234;53.158;6.322;2023-07-24T10:10:44;11.32;;;6.32;;
53151;SDS011;39234;53.158;6.322;2023-07-24T10:13:10;11.70;;;6.53;;
53151;SDS011;39234;53.158;6.322;2023-07-24T10:15:40;10.95;;;5.18;;
53151;SDS011;39234;53.158;6.322;2023-07-24T10:18:08;10.35;;;5.72;;
53151;SDS011;39234;53.158;6.322;2023-07-24T10:20:35;10.20;;;5.35;;
53151;SDS011;39234;53.158;6.322;2023-07-24T10:23:02;12.40;;;5.68;;
53151;SDS011;39234;53.158;6.322;2023-07-24T10:25:28;15.07;;;7.45;;
53151;SDS011;39234;53.158;6.322;2023-07-24T10:28:00;16.80;;;7.43;;
53151;SDS011;39234;53.158;6.322;2023-07-24T10:30:28;10.90;;;6.30;;
53151;SDS011;39234;53.158;6.322;2023-07-24T10:33:02;10.32;;;5.63;;
53151;SDS011;39234;53.158;6.322;2023-07-24T10:35:39;15.40;;;7.45;;
53151;SDS011;39234;53.158;6.322;2023-07-24T10:38:07;8.48;;;4.60;;
53151;SDS011;39234;53.158;6.322;2023-07-24T10:40:33;8.45;;;4.43;;
53151;SDS011;39234;53.158;6.322;2023-07-24T10:43:09;10.02;;;5.00;;
53151;SDS011;39234;53.158;6.322;2023-07-24T10:45:40;12.18;;;5.00;;
53151;SDS011;39234;53.158;6.322;2023-07-24T10:48:19;11.02;;;5.20;;
53151;SDS011;39234;53.158;6.322;2023-07-24T10:50:49;8.80;;;5.18;;
53151;SDS011;39234;53.158;6.322;2023-07-24T10:53:16;14.55;;;5.55;;
53151;SDS011;39234;53.158;6.322;2023-07-24T10:55:44;8.77;;;4.68;;
53151;SDS011;39234;53.158;6.322;2023-07-24T10:58:12;9.32;;;5.35;;
53151;SDS011;39234;53.158;6.322;2023-07-24T11:00:39;13.00;;;5.43;;
53151;SDS011;39234;53.158;6.322;2023-07-24T11:03:12;7.65;;;5.15;;
53151;SDS011;39234;53.158;6.322;2023-07-24T11:05:45;9.48;;;6.70;;
53151;SDS011;39234;53.158;6.322;2023-07-24T11:08:12;12.30;;;5.68;;
53151;SDS011;39234;53.158;6.322;2023-07-24T11:10:50;11.35;;;5.63;;
53151;SDS011;39234;53.158;6.322;2023-07-24T11:13:18;12.38;;;6.15;;
53151;SDS011;39234;53.158;6.322;2023-07-24T11:15:48;13.50;;;7.30;;
53151;SDS011;39234;53.158;6.322;2023-07-24T11:18:15;11.15;;;7.13;;
53151;SDS011;39234;53.158;6.322;2023-07-24T11:20:46;12.20;;;6.70;;
53151;SDS011;39234;53.158;6.322;2023-07-24T11:23:13;12.43;;;6.82;;
53151;SDS011;39234;53.158;6.322;2023-07-24T11:25:40;11.80;;;6.50;;
53151;SDS011;39234;53.158;6.322;2023-07-24T11:28:06;10.25;;;5.82;;
53151;SDS011;39234;53.158;6.322;2023-07-24T11:30:33;8.68;;;6.00;;
53151;SDS011;39234;53.158;6.322;2023-07-24T11:33:00;9.82;;;6.22;;
53151;SDS011;39234;53.158;6.322;2023-07-24T11:35:28;9.25;;;6.05;;
53151;SDS011;39234;53.158;6.322;2023-07-24T11:37:53;11.77;;;6.05;;
53151;SDS011;39234;53.158;6.322;2023-07-24T11:40:19;11.55;;;6.05;;
53151;SDS011;39234;53.158;6.322;2023-07-24T11:42:46;13.27;;;6.75;;
53151;SDS011;39234;53.158;6.322;2023-07-24T11:45:13;14.90;;;7.13;;
53151;SDS011;39234;53.158;6.322;2023-07-24T11:47:44;11.15;;;6.70;;
53151;SDS011;39234;53.158;6.322;2023-07-24T11:50:11;9.30;;;5.50;;
53151;SDS011;39234;53.158;6.322;2023-07-24T11:52:38;11.18;;;5.78;;
53151;SDS011;39234;53.158;6.322;2023-07-24T11:55:51;12.48;;;6.53;;
53151;SDS011;39234;53.158;6.322;2023-07-24T11:57:58;9.57;;;5.90;;
53151;SDS011;39234;53.158;6.322;2023-07-24T12:00:25;7.72;;;5.65;;
53151;SDS011;39234;53.158;6.322;2023-07-24T12:02:51;12.27;;;5.93;;
53151;SDS011;39234;53.158;6.322;2023-07-24T12:05:17;8.55;;;5.45;;
53151;SDS011;39234;53.158;6.322;2023-07-24T12:07:43;10.00;;;5.78;;
53151;SDS011;39234;53.158;6.322;2023-07-24T12:10:13;10.23;;;6.80;;
53151;SDS011;39234;53.158;6.322;2023-07-24T12:12:48;9.23;;;6.72;;
53151;SDS011;39234;53.158;6.322;2023-07-24T12:15:14;8.30;;;6.32;;
53151;SDS011;39234;53.158;6.322;2023-07-24T12:17:40;9.38;;;6.93;;
53151;SDS011;39234;53.158;6.322;2023-07-24T12:20:07;12.43;;;7.78;;
53151;SDS011;39234;53.158;6.322;2023-07-24T12:22:37;11.05;;;8.10;;
53151;SDS011;39234;53.158;6.322;2023-07-24T12:25:04;11.30;;;7.53;;
53151;SDS011;39234;53.158;6.322;2023-07-24T12:27:31;9.73;;;6.53;;
53151;SDS011;39234;53.158;6.322;2023-07-24T12:29:57;9.75;;;5.05;;
53151;SDS011;39234;53.158;6.322;2023-07-24T12:32:23;6.50;;;4.65;;
53151;SDS011;39234;53.158;6.322;2023-07-24T12:34:50;7.63;;;4.70;;
53151;SDS011;39234;53.158;6.322;2023-07-24T12:37:17;7.78;;;4.88;;
53151;SDS011;39234;53.158;6.322;2023-07-24T12:39:46;7.82;;;4.78;;
53151;SDS011;39234;53.158;6.322;2023-07-24T12:42:13;7.95;;;5.10;;
53151;SDS011;39234;53.158;6.322;2023-07-24T12:44:40;7.68;;;4.78;;
53151;SDS011;39234;53.158;6.322;2023-07-24T12:47:07;8.10;;;4.57;;
53151;SDS011;39234;53.158;6.322;2023-07-24T12:49:33;8.25;;;4.53;;
53151;SDS011;39234;53.158;6.322;2023-07-24T12:51:59;6.25;;;4.47;;
53151;SDS011;39234;53.158;6.322;2023-07-24T12:54:24;6.50;;;4.32;;
53151;SDS011;39234;53.158;6.322;2023-07-24T12:56:50;7.25;;;4.00;;
53151;SDS011;39234;53.158;6.322;2023-07-24T12:59:19;6.28;;;4.10;;
53151;SDS011;39234;53.158;6.322;2023-07-24T13:01:45;9.15;;;3.53;;
53151;SDS011;39234;53.158;6.322;2023-07-24T13:04:11;6.15;;;3.80;;
53151;SDS011;39234;53.158;6.322;2023-07-24T13:06:37;4.60;;;3.10;;
53151;SDS011;39234;53.158;6.322;2023-07-24T13:09:03;6.25;;;2.72;;
53151;SDS011;39234;53.158;6.322;2023-07-24T13:11:29;5.65;;;2.70;;
53151;SDS011;39234;53.158;6.322;2023-07-24T13:13:55;6.20;;;2.30;;
53151;SDS011;39234;53.158;6.322;2023-07-24T13:16:21;3.25;;;1.63;;
53151;SDS011;39234;53.158;6.322;2023-07-24T13:18:48;3.42;;;1.45;;
53151;SDS011;39234;53.158;6.322;2023-07-24T13:21:14;4.93;;;1.42;;
53151;SDS011;39234;53.158;6.322;2023-07-24T13:23:40;3.78;;;1.80;;
53151;SDS011;39234;53.158;6.322;2023-07-24T13:26:06;5.65;;;1.52;;
53151;SDS011;39234;53.158;6.322;2023-07-24T13:28:33;6.57;;;1.58;;
53151;SDS011;39234;53.158;6.322;2023-07-24T13:30:59;9.13;;;2.03;;
53151;SDS011;39234;53.158;6.322;2023-07-24T13:33:35;7.43;;;1.70;;
53151;SDS011;39234;53.158;6.322;2023-07-24T13:36:01;7.53;;;2.20;;
53151;SDS011;39234;53.158;6.322;2023-07-24T13:38:26;8.43;;;1.70;;
53151;SDS011;39234;53.158;6.322;2023-07-24T13:40:52;6.05;;;1.83;;
53151;SDS011;39234;53.158;6.322;2023-07-24T13:43:18;5.72;;;1.63;;
53151;SDS011;39234;53.158;6.322;2023-07-24T13:45:43;9.32;;;2.10;;
53151;SDS011;39234;53.158;6.322;2023-07-24T13:48:09;6.70;;;2.00;;
53151;SDS011;39234;53.158;6.322;2023-07-24T13:50:35;8.25;;;2.15;;
53151;SDS011;39234;53.158;6.322;2023-07-24T13:53:01;11.18;;;2.40;;
53151;SDS011;39234;53.158;6.322;2023-07-24T13:55:26;7.00;;;1.80;;
53151;SDS011;39234;53.158;6.322;2023-07-24T13:57:52;6.18;;;1.90;;
53151;SDS011;39234;53.158;6.322;2023-07-24T14:00:18;9.82;;;2.00;;
53151;SDS011;39234;53.158;6.322;2023-07-24T14:02:43;7.63;;;1.85;;
53151;SDS011;39234;53.158;6.322;2023-07-24T14:05:09;8.35;;;1.98;;
53151;SDS011;39234;53.158;6.322;2023-07-24T14:07:35;10.70;;;2.90;;
53151;SDS011;39234;53.158;6.322;2023-07-24T14:10:00;7.75;;;1.83;;
53151;SDS011;39234;53.158;6.322;2023-07-24T14:12:26;7.70;;;1.75;;
53151;SDS011;39234;53.158;6.322;2023-07-24T14:14:52;10.93;;;2.08;;
53151;SDS011;39234;53.158;6.322;2023-07-24T14:17:18;12.50;;;1.95;;
53151;SDS011;39234;53.158;6.322;2023-07-24T14:19:44;9.35;;;2.20;;
53151;SDS011;39234;53.158;6.322;2023-07-24T14:22:10;9.18;;;1.73;;
53151;SDS011;39234;53.158;6.322;2023-07-24T14:24:35;7.20;;;1.63;;
53151;SDS011;39234;53.158;6.322;2023-07-24T14:27:01;12.38;;;2.05;;
53151;SDS011;39234;53.158;6.322;2023-07-24T14:29:27;6.88;;;1.80;;
53151;SDS011;39234;53.158;6.322;2023-07-24T14:31:53;9.48;;;1.73;;
53151;SDS011;39234;53.158;6.322;2023-07-24T14:34:18;10.73;;;1.70;;
53151;SDS011;39234;53.158;6.322;2023-07-24T14:36:44;8.27;;;2.25;;
53151;SDS011;39234;53.158;6.322;2023-07-24T14:39:10;6.70;;;1.73;;